createdAt,value
2022-09-02T00:02:24.458Z,63.10
2022-09-02T00:12:27.604Z,64.26
2022-09-02T00:22:29.655Z,65.68
2022-09-02T00:32:31.777Z,65.82
2022-09-02T00:42:35.428Z,66.72
2022-09-02T00:52:46.688Z,67.55
2022-09-02T01:02:56.410Z,67.93
2022-09-02T01:13:10.121Z,68.63
2022-09-02T01:23:17.515Z,69.15
2022-09-02T01:33:25.372Z,69.16
2022-09-02T01:43:32.061Z,70.45
2022-09-02T01:53:36.953Z,70.94
2022-09-02T02:03:43.382Z,71.40
2022-09-02T02:13:46.141Z,73.07
2022-09-02T02:23:51.336Z,72.29
2022-09-02T02:33:56.892Z,72.12
2022-09-02T02:44:03.792Z,73.30
2022-09-02T02:54:06.573Z,73.45
2022-09-02T03:04:14.198Z,74.37
2022-09-02T03:14:19.378Z,74.45
2022-09-02T03:24:24.788Z,75.51
2022-09-02T03:34:29.184Z,76.77
2022-09-02T03:44:33.355Z,78.48
2022-09-02T03:54:37.905Z,79.01
2022-09-02T04:04:39.993Z,76.20
2022-09-02T04:14:42.807Z,72.49
2022-09-02T04:24:45.872Z,68.30
2022-09-02T04:34:51.297Z,63.79
2022-09-02T04:44:54.879Z,59.32
2022-09-02T04:55:08.510Z,56.85
2022-09-02T05:05:11.763Z,54.27
2022-09-02T05:15:17.417Z,51.68
2022-09-02T05:25:20.749Z,50.59
2022-09-02T05:35:25.811Z,50.01
2022-09-02T05:45:32.428Z,50.28
2022-09-02T05:55:36.823Z,49.74
2022-09-02T06:05:42.695Z,48.22
2022-09-02T06:15:53.113Z,48.29
2022-09-02T06:25:59.750Z,48.31
2022-09-02T06:36:10.558Z,48.52
2022-09-02T06:46:18.475Z,46.87
2022-09-02T06:56:23.819Z,47.08
2022-09-02T07:06:36.122Z,45.98
2022-09-02T07:16:52.517Z,45.20
2022-09-02T07:26:57.296Z,44.86
2022-09-02T07:37:05.086Z,43.58
2022-09-02T07:47:13.116Z,41.26
2022-09-02T07:57:27.719Z,41.09
2022-09-02T08:07:33.591Z,40.19
2022-09-02T08:17:35.708Z,39.52
2022-09-02T08:27:38.350Z,38.50
2022-09-02T08:37:44.433Z,37.10
2022-09-02T08:47:50.946Z,35.07
2022-09-02T08:57:57.497Z,35.41
2022-09-02T09:08:21.746Z,34.40
2022-09-02T09:18:41.904Z,33.91
2022-09-02T09:28:47.266Z,33.38
2022-09-02T09:38:52.109Z,32.51
2022-09-02T09:49:00.074Z,32.59
2022-09-02T09:59:02.635Z,34.30
2022-09-02T10:09:30.577Z,33.25
2022-09-02T10:19:56.717Z,34.59
2022-09-02T10:30:05.712Z,33.04
2022-09-02T10:40:10.887Z,32.87
2022-09-02T10:50:30.738Z,32.06
2022-09-02T11:00:36.577Z,33.02
2022-09-02T11:11:04.791Z,32.99
2022-09-02T11:21:31.882Z,32.52
2022-09-02T11:31:45.068Z,32.42
2022-09-02T11:42:18.456Z,32.60
2022-09-02T11:52:32.467Z,32.08
2022-09-02T12:02:43.539Z,32.12
2022-09-02T12:13:09.799Z,32.90
2022-09-02T12:23:49.925Z,32.58
2022-09-02T12:33:53.814Z,31.85
2022-09-02T12:44:14.423Z,32.34
2022-09-02T12:54:25.594Z,32.04
2022-09-02T13:05:05.940Z,32.62
2022-09-02T13:15:23.454Z,32.83
2022-09-02T13:26:45.490Z,32.25
2022-09-02T13:36:48.018Z,31.80
2022-09-02T13:46:57.394Z,31.58
2022-09-02T13:57:07.822Z,33.62
2022-09-02T14:07:12.786Z,32.50
2022-09-02T14:17:19.261Z,32.98
2022-09-02T14:27:22.581Z,32.98
2022-09-02T14:37:31.244Z,32.81
2022-09-02T14:47:37.909Z,32.87
2022-09-02T14:57:42.233Z,33.23
2022-09-02T15:07:46.812Z,34.00
2022-09-02T15:17:51.473Z,34.28
2022-09-02T15:27:55.800Z,34.76
2022-09-02T15:37:57.887Z,35.25
2022-09-02T15:48:03.403Z,35.14
2022-09-02T15:58:08.311Z,34.97
2022-09-02T16:08:15.141Z,34.85
2022-09-02T16:18:19.492Z,35.31
2022-09-02T16:28:24.950Z,34.48
2022-09-02T16:38:31.966Z,34.30
2022-09-02T16:48:34.289Z,34.65
2022-09-02T16:58:39.191Z,35.73
2022-09-02T17:08:50.697Z,35.95
2022-09-02T17:18:55.209Z,36.26
2022-09-02T17:29:07.706Z,37.20
2022-09-02T17:39:19.842Z,37.51
2022-09-02T17:49:22.534Z,37.34
2022-09-02T17:59:42.959Z,37.26
2022-09-02T18:09:46.757Z,38.00
2022-09-02T18:20:14.088Z,38.08
2022-09-02T18:30:32.255Z,38.48
2022-09-02T18:40:44.646Z,38.67
2022-09-02T18:50:52.593Z,38.97
2022-09-02T19:01:01.854Z,39.27
2022-09-02T19:11:13.997Z,39.74
2022-09-02T19:21:45.039Z,40.23
2022-09-02T19:31:49.136Z,41.40
2022-09-02T19:41:54.623Z,42.30
2022-09-02T19:51:56.939Z,43.04
2022-09-02T20:02:00.709Z,44.39
2022-09-02T20:12:02.868Z,45.03
2022-09-02T20:22:06.578Z,45.62
2022-09-02T20:32:47.880Z,46.63
2022-09-02T20:43:03.508Z,46.72
2022-09-02T20:53:05.897Z,46.63
2022-09-02T21:03:12.281Z,46.42
2022-09-02T21:13:21.329Z,46.53
2022-09-02T21:23:48.728Z,46.12
2022-09-02T21:33:55.053Z,47.80
2022-09-02T21:44:25.206Z,48.48
2022-09-02T21:54:48.340Z,48.01
2022-09-02T22:04:58.516Z,46.55
2022-09-02T22:15:14.867Z,46.38
2022-09-02T22:25:21.930Z,45.27
2022-09-02T22:35:31.772Z,45.53
2022-09-02T22:46:16.372Z,45.55
2022-09-02T22:56:39.071Z,46.53
2022-09-02T23:06:53.947Z,47.47
2022-09-02T23:17:15.729Z,49.95
2022-09-02T23:27:34.385Z,52.07
2022-09-02T23:38:00.467Z,55.26
2022-09-02T23:48:41.877Z,56.17
2022-09-02T23:59:18.263Z,56.75
